map of KPIL home
KPIL - Airport
Location
City:  Port Isabel, Texas, United States
Name:Port Isabel-Cameron County Airport
ICAO:KPIL
FAA LID:PIL

Details
Type:Airport (Airfield)
Use:Public/Civil
Latitude:2609'58"N (26.166194)
Longitude:9720'45"W (-97.345888)
Datum:WGS 1984
Elevation:18 ft (5 m)
Variation:3.55E (WMM2015 magnetic declination)
-0.12 annual change
Runways:4
Longest:8001 × 200 ft (2439 × 61 m), paved

Time
Time Zone:UTC-6 (DST-5)
Local Time:

Weather
METAR:KPIL 171253Z AUTO 34005KT 9SM BKN017 OVC024 16/14 A3018 RMK AO2 SLP219 T01560139

Related Locations
Nearby:
Farthest:RRG: 11141 mi / 17930 km
Plaine Corail [Sir Gatan Duval Airport (Plaine Corail Airport)], Rodrigues Island, MU

Find:

   beyond  
but within

Other Information
Maps:
NOTAMs:
Links:
Sources:

  
  • flag of United States
  • flag of Texas
  

Sectional Chart

Flight Planning
at skyvector.com

Satellite Image

Google Maps Satellite view

 

Copyright © 2004-2019 Karl L. Swartz. All rights reserved.
The Great Circle Mapper name and logo are trademarks of the Great Circle Mapper.
All other trademarks mentioned herein belong to their respective owners.
Please see credits for attibutions and further copyright information.

  Follow gcmap on Facebook Follow gcmap on Twitter Follow gcmap on Google+ GCmap on LinkedIn

hCard Microformat

Geo Microformat